Aultbea, United Kingdom
Current Conditions -  °F | °C
As of 2:50 PM on Thursday 23 Oct 2014 (Local Time) from EGPO Reporting Station
Scattered Clouds Scattered Clouds  
Wind Chill: 55°   Ceiling: Unl
Heat Index: 55°   Visibility: 6mi
Dew Point: 48°   Wind: 18mph
Humidity: 77%   Direction: 220°SW
Pressure: 29.53"   Gusts: NA
Location:  57.87°N, 5.63°W
Report Text: EGPO 231350Z 22016KT 9999 FEW014 SCT030 13/09 Q1000
Loading
Personal Weather Stations






























Interactive Weather Map
Tropical Storm Tracking
New forecast layout! Learn more

10-Day Weather Forecast

Advertisements
Track Severe Weather on mobile